createdAt,value
2018-06-04T08:12:06.870Z,52.30
2018-06-04T08:14:36.145Z,51.10
2018-06-04T08:17:05.256Z,48.50
2018-06-04T08:19:34.864Z,47.90
2018-06-04T08:22:03.928Z,48.50
2018-06-04T08:24:34.364Z,49.60
2018-06-04T08:27:04.675Z,50.90
2018-06-04T08:29:33.676Z,52.40
2018-06-04T08:32:03.469Z,55.80
2018-06-04T08:34:35.109Z,56.00
2018-06-04T08:37:04.253Z,56.40
2018-06-04T08:39:33.280Z,59.20
2018-06-04T08:42:05.055Z,61.50
2018-06-04T08:44:36.102Z,64.20
2018-06-04T08:47:06.789Z,64.90
2018-06-04T09:56:54.920Z,45.60
2018-06-04T09:59:23.888Z,46.40
2018-06-04T10:01:53.389Z,43.00
2018-06-04T10:04:23.247Z,41.00
2018-06-04T10:06:55.435Z,40.60
2018-06-04T10:09:24.450Z,39.70
2018-06-04T10:11:53.510Z,40.50
2018-06-04T10:14:23.480Z,40.50
2018-06-04T10:16:55.453Z,42.90
2018-06-04T10:19:24.418Z,41.70
2018-06-04T10:21:53.462Z,42.40
2018-06-04T10:26:53.261Z,39.50
2018-06-04T10:29:25.088Z,37.80
2018-06-04T10:31:55.727Z,35.60
2018-06-04T10:36:55.737Z,33.00
2018-06-04T10:39:26.949Z,36.50
2018-06-04T10:41:57.487Z,39.90
2018-06-04T10:46:58.814Z,44.40
2018-06-04T10:49:30.179Z,47.20
2018-06-04T10:52:02.055Z,49.60
2018-06-04T10:54:32.460Z,50.00
2018-06-04T10:57:03.623Z,50.20
2018-06-04T10:59:34.147Z,53.20
2018-06-04T11:02:05.198Z,55.30
2018-06-04T11:04:34.923Z,55.70
2018-06-04T11:07:04.022Z,56.50
2018-06-04T11:09:35.478Z,57.80
2018-06-04T11:12:05.353Z,59.30
2018-06-04T11:14:35.108Z,62.20
2018-06-04T11:17:04.556Z,62.20
2018-06-04T11:19:34.171Z,63.20
2018-06-04T21:57:47.658Z,99.90
2018-06-04T22:00:18.357Z,99.90
2018-06-04T22:02:47.410Z,99.90
2018-06-04T22:05:16.527Z,94.20
2018-06-04T22:07:48.055Z,94.50
2018-06-04T22:10:18.389Z,94.30
2018-06-04T22:12:50.754Z,94.30
2018-06-04T22:15:21.292Z,94.10
2018-06-04T22:17:51.831Z,94.20
2018-06-04T22:20:21.558Z,94.30
2018-06-04T22:22:51.731Z,94.50
2018-06-04T22:25:21.522Z,94.90
2018-06-04T23:35:37.434Z,97.40
2018-06-04T23:38:07.461Z,97.60
2018-06-04T23:40:37.764Z,98.30
2018-06-04T23:43:07.577Z,98.30
2018-06-04T23:45:37.382Z,98.10
2018-06-04T23:48:07.618Z,98.30
2018-06-04T23:50:37.228Z,98.50
2018-06-04T23:53:06.328Z,97.80
2018-06-04T23:55:35.873Z,98.00
2018-06-04T23:58:06.156Z,98.30
